Time;durP1;ratioP1;P1;durP2;ratioP2;P2;SDS_P1;SDS_P2;PMS_P1;PMS_P2;Temp;Humidity;BMP_temperature;BMP_pressure;BME280_temperature;BME280_humidity;BME280_pressure;Samples;Min_cycle;Max_cycle;Signal;HPM_P1;HPM_P2
2022/03/06 00:01:09;;;;;;;6.50;3.00;;;18.60;37.70;;;;;;5003051;28;88229;-69
2022/03/06 00:03:37;;;;;;;5.30;2.63;;;18.60;37.70;;;;;;5001915;28;88651;-69
2022/03/06 00:06:05;;;;;;;4.37;2.43;;;18.60;37.70;;;;;;5002058;28;90663;-69
2022/03/06 00:08:37;;;;;;;4.07;2.73;;;18.60;37.70;;;;;;5001309;28;90129;-70
2022/03/06 00:11:05;;;;;;;4.87;2.43;;;18.70;38.50;;;;;;5001876;28;89990;-69
2022/03/06 00:13:33;;;;;;;5.30;2.60;;;18.60;37.70;;;;;;5002398;28;88456;-69
2022/03/06 00:16:01;;;;;;;3.83;2.67;;;18.60;37.70;;;;;;5002276;28;89330;-69
2022/03/06 00:18:29;;;;;;;3.13;2.50;;;18.60;37.70;;;;;;5001729;28;89067;-69
2022/03/06 00:20:59;;;;;;;4.07;2.77;;;18.60;37.80;;;;;;5001295;28;88288;-69
2022/03/06 00:23:27;;;;;;;3.90;2.63;;;18.50;37.70;;;;;;5001549;28;88839;-69
2022/03/06 00:25:56;;;;;;;4.50;2.50;;;18.50;37.60;;;;;;5001697;28;90622;-69
2022/03/06 00:28:24;;;;;;;5.17;2.70;;;18.50;37.70;;;;;;5001792;28;89007;-69
2022/03/06 00:30:52;;;;;;;3.60;2.57;;;18.50;37.70;;;;;;5002005;28;88786;-69
2022/03/06 00:33:20;;;;;;;6.23;2.77;;;18.50;37.70;;;;;;5001773;28;88636;-69
2022/03/06 00:35:48;;;;;;;3.50;2.30;;;18.50;37.70;;;;;;5001491;28;90753;-70
2022/03/06 00:38:16;;;;;;;3.77;2.50;;;18.50;37.70;;;;;;5000739;28;88539;-69
2022/03/06 00:40:45;;;;;;;4.57;2.40;;;18.50;37.70;;;;;;5001496;28;89070;-69
2022/03/06 00:43:15;;;;;;;5.63;2.20;;;18.50;37.70;;;;;;5001475;28;88449;-69
2022/03/06 00:45:43;;;;;;;2.70;2.30;;;18.40;37.60;;;;;;5000973;28;90701;-70
2022/03/06 00:48:11;;;;;;;3.67;2.37;;;18.40;37.60;;;;;;5000915;28;89003;-69
2022/03/06 00:50:39;;;;;;;3.30;3.00;;;18.60;37.80;;;;;;5000949;28;88313;-69
2022/03/06 00:53:07;;;;;;;4.67;2.80;;;18.40;37.60;;;;;;5001634;28;88370;-68
2022/03/06 00:55:35;;;;;;;5.10;2.80;;;18.40;37.60;;;;;;5000549;28;89781;-69
2022/03/06 00:58:06;;;;;;;4.40;2.30;;;18.40;37.60;;;;;;5000885;28;88583;-69
2022/03/06 01:00:36;;;;;;;8.13;3.03;;;18.40;37.70;;;;;;5000759;28;89789;-69
2022/03/06 01:03:04;;;;;;;3.90;2.33;;;18.40;37.70;;;;;;5001271;28;88715;-68
2022/03/06 01:05:33;;;;;;;4.83;2.67;;;18.40;37.70;;;;;;5000772;28;93613;-69
2022/03/06 01:08:01;;;;;;;4.80;2.80;;;18.40;37.70;;;;;;5000395;28;89133;-70
2022/03/06 01:10:29;;;;;;;4.30;2.77;;;18.40;37.70;;;;;;5000552;28;88634;-69
2022/03/06 01:12:57;;;;;;;3.93;2.17;;;18.40;38.30;;;;;;5000772;28;88916;-69
2022/03/06 01:15:25;;;;;;;2.87;2.30;;;18.30;37.60;;;;;;5000951;28;91208;-69
2022/03/06 01:17:54;;;;;;;2.97;2.40;;;18.30;37.70;;;;;;5001051;28;88805;-70
2022/03/06 01:20:23;;;;;;;3.13;2.47;;;18.30;37.70;;;;;;5001179;28;88860;-69
2022/03/06 01:22:51;;;;;;;3.47;2.60;;;18.30;37.70;;;;;;5000251;28;88648;-70
2022/03/06 01:25:19;;;;;;;3.00;2.13;;;18.30;37.70;;;;;;5000740;28;89781;-70
2022/03/06 01:27:47;;;;;;;3.33;2.30;;;18.30;37.70;;;;;;4999958;28;88950;-68
2022/03/06 01:30:16;;;;;;;3.13;1.87;;;18.30;37.70;;;;;;5000551;28;88383;-69
2022/03/06 01:32:44;;;;;;;3.63;2.37;;;18.30;37.70;;;;;;5000462;28;88461;-68
2022/03/06 01:35:14;;;;;;;3.67;2.37;;;18.30;37.70;;;;;;4999767;28;89544;-68
2022/03/06 01:37:42;;;;;;;5.27;2.53;;;18.30;37.70;;;;;;5000939;28;90114;-68
2022/03/06 01:40:11;;;;;;;2.10;1.73;;;18.30;37.70;;;;;;5000480;28;88481;-69
2022/03/06 01:42:39;;;;;;;2.97;1.80;;;18.30;37.70;;;;;;5000498;28;88615;-69
2022/03/06 01:45:08;;;;;;;3.73;2.70;;;18.30;37.70;;;;;;5000027;28;89950;-69
2022/03/06 01:47:39;;;;;;;3.43;2.00;;;18.30;37.70;;;;;;5000536;28;90046;-70
2022/03/06 01:50:09;;;;;;;3.43;1.93;;;18.30;37.70;;;;;;5000668;28;89899;-69
2022/03/06 01:52:38;;;;;;;4.17;2.70;;;18.30;37.70;;;;;;4999526;28;88705;-69
2022/03/06 01:55:07;;;;;;;3.37;1.90;;;18.20;37.60;;;;;;4999394;28;89609;-69
2022/03/06 01:57:35;;;;;;;3.37;2.27;;;18.20;37.60;;;;;;5000813;28;89455;-70
2022/03/06 02:00:05;;;;;;;3.73;2.00;;;18.30;37.70;;;;;;4999843;28;88804;-69
2022/03/06 02:02:33;;;;;;;3.37;2.20;;;18.20;37.60;;;;;;5000117;28;88635;-69
2022/03/06 02:05:01;;;;;;;2.83;2.20;;;18.20;37.70;;;;;;4999604;28;93606;-69
2022/03/06 02:07:29;;;;;;;3.77;2.07;;;18.20;37.70;;;;;;4999823;28;90124;-69
2022/03/06 02:09:58;;;;;;;2.60;1.90;;;18.20;37.70;;;;;;5000029;28;88409;-69
2022/03/06 02:12:27;;;;;;;4.43;2.00;;;18.20;37.70;;;;;;5000260;28;88419;-69
2022/03/06 02:14:57;;;;;;;3.17;2.33;;;18.20;37.70;;;;;;5000173;28;90792;-70
2022/03/06 02:17:25;;;;;;;2.50;2.00;;;18.20;37.70;;;;;;4998944;28;89056;-69
2022/03/06 02:19:54;;;;;;;3.23;2.00;;;18.20;37.70;;;;;;4998825;28;89418;-69
2022/03/06 02:22:25;;;;;;;3.33;2.03;;;18.10;37.60;;;;;;5000224;28;88478;-69
2022/03/06 02:24:53;;;;;;;2.00;1.73;;;18.10;37.60;;;;;;4999716;28;90572;-69
2022/03/06 02:27:21;;;;;;;2.83;2.17;;;18.10;37.60;;;;;;4999519;28;89090;-69
2022/03/06 02:29:49;;;;;;;2.67;1.93;;;18.10;37.60;;;;;;5000249;28;89213;-69
2022/03/06 02:32:18;;;;;;;3.40;1.70;;;18.20;37.70;;;;;;4999344;28;88404;-69
2022/03/06 02:34:47;;;;;;;2.77;1.87;;;18.10;37.60;;;;;;4999502;28;90624;-69
2022/03/06 02:37:16;;;;;;;2.97;2.07;;;18.10;37.60;;;;;;4999720;28;90075;-69
2022/03/06 02:39:46;;;;;;;2.17;1.57;;;18.10;37.60;;;;;;4998969;28;89931;-69
2022/03/06 02:42:23;;;;;;;3.30;1.87;;;18.10;37.70;;;;;;4999861;28;88565;-69
2022/03/06 02:44:52;;;;;;;2.27;2.07;;;18.10;37.70;;;;;;4998378;28;90689;-70
2022/03/06 02:47:20;;;;;;;2.47;2.20;;;18.10;37.60;;;;;;4999255;28;90008;-69
2022/03/06 02:49:48;;;;;;;3.07;2.00;;;18.10;37.60;;;;;;4999403;28;88910;-69
2022/03/06 02:52:16;;;;;;;2.23;2.03;;;18.10;37.60;;;;;;4999607;28;88199;-69
2022/03/06 02:54:44;;;;;;;3.07;2.13;;;18.10;37.60;;;;;;4999670;28;92539;-69
2022/03/06 02:57:13;;;;;;;3.47;1.87;;;18.00;37.50;;;;;;4999730;28;90167;-69
2022/03/06 02:59:41;;;;;;;2.70;1.90;;;18.00;37.60;;;;;;4999372;28;88877;-70
2022/03/06 03:02:09;;;;;;;3.43;1.63;;;18.00;37.60;;;;;;4998923;28;88294;-69
2022/03/06 03:04:38;;;;;;;2.27;1.93;;;18.00;38.20;;;;;;4998395;28;89477;-69
2022/03/06 03:07:07;;;;;;;2.30;1.60;;;18.00;37.60;;;;;;4998322;28;90081;-69
2022/03/06 03:09:35;;;;;;;1.90;1.70;;;18.00;37.60;;;;;;4998583;28;88477;-69
2022/03/06 03:12:04;;;;;;;2.67;1.73;;;18.00;37.60;;;;;;4998738;28;88709;-69
2022/03/06 03:14:35;;;;;;;1.83;1.40;;;18.00;37.60;;;;;;4998004;28;89699;-69
2022/03/06 03:17:03;;;;;;;2.40;1.60;;;18.00;37.60;;;;;;4999297;28;90095;-69
2022/03/06 03:19:31;;;;;;;2.20;1.63;;;18.00;37.60;;;;;;4999899;28;88406;-69
2022/03/06 03:21:59;;;;;;;3.37;2.20;;;18.00;37.60;;;;;;4998708;28;88454;-69
2022/03/06 03:24:27;;;;;;;1.90;1.73;;;18.00;37.60;;;;;;4998627;28;90722;-69
2022/03/06 03:26:55;;;;;;;2.60;1.70;;;17.90;37.50;;;;;;4998994;28;92494;-69
2022/03/06 03:29:23;;;;;;;3.00;2.07;;;17.90;37.50;;;;;;4999224;28;89766;-69
2022/03/06 03:31:53;;;;;;;4.03;1.97;;;17.90;37.60;;;;;;5001414;28;88656;-68
2022/03/06 03:34:21;;;;;;;4.30;1.80;;;17.90;37.60;;;;;;5001808;28;88184;-68
2022/03/06 03:36:49;;;;;;;2.03;1.83;;;17.90;37.60;;;;;;5001732;28;89049;-68
2022/03/06 03:39:17;;;;;;;1.67;1.57;;;17.90;37.60;;;;;;5001834;28;88721;-70
2022/03/06 03:41:45;;;;;;;2.73;2.20;;;17.90;37.60;;;;;;5002000;28;88249;-69
2022/03/06 03:44:13;;;;;;;2.77;2.00;;;17.90;37.50;;;;;;5002610;28;91077;-69
2022/03/06 03:46:41;;;;;;;2.60;1.60;;;17.90;37.50;;;;;;5002614;28;90299;-69
2022/03/06 03:49:11;;;;;;;2.93;2.10;;;17.90;37.50;;;;;;5002241;28;88265;-70
2022/03/06 03:51:39;;;;;;;2.67;2.10;;;17.90;37.50;;;;;;5002320;28;88565;-69
2022/03/06 03:54:07;;;;;;;2.27;1.70;;;17.90;37.50;;;;;;5001995;28;90682;-70
2022/03/06 03:56:34;;;;;;;1.67;1.53;;;17.90;37.50;;;;;;5001122;28;90275;-68
2022/03/06 03:59:02;;;;;;;1.87;1.70;;;17.90;37.50;;;;;;5001991;28;88297;-69
2022/03/06 04:01:30;;;;;;;3.13;1.47;;;17.90;37.50;;;;;;5002447;28;88499;-69
2022/03/06 04:03:59;;;;;;;2.00;1.80;;;17.90;37.50;;;;;;5001864;28;90731;-70
2022/03/06 04:06:28;;;;;;;2.03;1.70;;;17.90;37.60;;;;;;5001754;28;88843;-68
2022/03/06 04:08:56;;;;;;;1.90;1.73;;;17.90;37.60;;;;;;5002076;28;88316;-69
2022/03/06 04:11:24;;;;;;;2.53;1.43;;;17.80;37.50;;;;;;5001985;28;88466;-69
2022/03/06 04:13:52;;;;;;;2.23;1.87;;;17.80;37.50;;;;;;5001780;28;90783;-69
2022/03/06 04:16:20;;;;;;;2.73;1.27;;;17.80;37.50;;;;;;5002221;28;88723;-69
2022/03/06 04:18:48;;;;;;;2.90;1.37;;;17.80;37.50;;;;;;5002204;28;88450;-69
2022/03/06 04:21:17;;;;;;;3.03;1.80;;;17.80;37.50;;;;;;5002119;28;88509;-69
2022/03/06 04:23:46;;;;;;;2.50;1.57;;;17.80;37.50;;;;;;5001864;28;90601;-69
2022/03/06 04:26:15;;;;;;;2.13;1.80;;;17.80;37.50;;;;;;5002038;28;90079;-70
2022/03/06 04:28:43;;;;;;;1.97;1.50;;;17.80;37.50;;;;;;5001233;28;88703;-72
2022/03/06 04:31:10;;;;;;;2.30;1.63;;;17.80;37.50;;;;;;5002061;28;88449;-70
2022/03/06 04:33:38;;;;;;;2.27;1.50;;;17.70;37.50;;;;;;5001973;28;90183;-69
2022/03/06 04:36:06;;;;;;;2.13;1.63;;;17.80;37.50;;;;;;5001792;28;89041;-70
2022/03/06 04:38:35;;;;;;;2.00;1.80;;;17.70;37.50;;;;;;5000751;28;88316;-69
2022/03/06 04:41:04;;;;;;;1.93;1.60;;;17.70;37.50;;;;;;5001526;28;88458;-69
2022/03/06 04:43:32;;;;;;;5.23;1.70;;;17.70;37.50;;;;;;5000331;28;90694;-69
2022/03/06 04:46:00;;;;;;;1.60;1.50;;;17.70;37.50;;;;;;5000857;28;89149;-68
2022/03/06 04:48:28;;;;;;;2.47;1.83;;;17.70;37.50;;;;;;5001884;28;88536;-69
2022/03/06 04:50:56;;;;;;;2.50;1.10;;;17.70;37.50;;;;;;5001423;28;88584;-70
2022/03/06 04:53:24;;;;;;;1.40;1.30;;;17.70;37.50;;;;;;5001157;28;90633;-69
2022/03/06 04:55:52;;;;;;;2.57;1.83;;;17.70;37.50;;;;;;5000306;28;89095;-68
2022/03/06 04:58:21;;;;;;;2.07;1.53;;;17.70;37.50;;;;;;5001253;28;91444;-68
2022/03/06 05:00:49;;;;;;;2.73;1.70;;;17.70;37.50;;;;;;5000968;28;88617;-69
2022/03/06 05:03:17;;;;;;;1.50;1.40;;;17.70;37.50;;;;;;5001080;28;90037;-69
2022/03/06 05:05:45;;;;;;;2.67;1.70;;;17.70;37.50;;;;;;5000990;28;88592;-68
2022/03/06 05:08:13;;;;;;;1.30;1.20;;;17.70;37.50;;;;;;5000780;28;89608;-68
2022/03/06 05:10:41;;;;;;;1.93;1.43;;;17.70;37.50;;;;;;5001044;28;88359;-68
2022/03/06 05:13:10;;;;;;;3.13;1.27;;;17.70;37.50;;;;;;5000349;28;89720;-69
2022/03/06 05:15:40;;;;;;;1.90;1.30;;;17.70;37.50;;;;;;5000987;28;91090;-69
2022/03/06 05:18:08;;;;;;;1.70;1.40;;;17.60;37.40;;;;;;5001102;28;88835;-70
2022/03/06 05:20:36;;;;;;;1.60;1.50;;;17.60;37.40;;;;;;5000974;28;88492;-69
2022/03/06 05:23:04;;;;;;;2.27;1.57;;;17.60;37.40;;;;;;5000716;28;90137;-68
2022/03/06 05:25:32;;;;;;;1.90;1.53;;;17.70;37.50;;;;;;5000183;28;89126;-69
2022/03/06 05:28:00;;;;;;;1.77;1.40;;;17.60;37.50;;;;;;5001079;28;90676;-68
2022/03/06 05:30:30;;;;;;;1.60;1.10;;;17.60;37.40;;;;;;5001012;28;88142;-68
2022/03/06 05:32:59;;;;;;;1.70;1.57;;;17.60;37.40;;;;;;5000649;28;90638;-69
2022/03/06 05:35:27;;;;;;;4.20;1.43;;;17.60;37.40;;;;;;4999406;28;89078;-69
2022/03/06 05:37:55;;;;;;;2.40;1.53;;;17.60;37.40;;;;;;5000283;28;90000;-69
2022/03/06 05:40:23;;;;;;;2.00;1.37;;;17.60;37.50;;;;;;4999963;28;89543;-69
2022/03/06 05:42:51;;;;;;;1.90;1.50;;;17.60;37.50;;;;;;4999984;28;89631;-69
2022/03/06 05:45:19;;;;;;;1.63;1.37;;;17.60;37.40;;;;;;5000455;28;91876;-68
2022/03/06 05:47:47;;;;;;;1.80;1.70;;;17.60;37.50;;;;;;5000741;28;88901;-69
2022/03/06 05:50:17;;;;;;;1.70;1.60;;;17.60;37.50;;;;;;5000207;28;88647;-69
2022/03/06 05:52:45;;;;;;;1.40;1.30;;;17.60;37.50;;;;;;4999962;28;90996;-68
2022/03/06 05:55:12;;;;;;;2.27;1.60;;;17.60;37.50;;;;;;4998918;28;90609;-70
2022/03/06 05:57:40;;;;;;;1.70;1.60;;;17.60;37.50;;;;;;5000524;28;89871;-70
2022/03/06 06:00:09;;;;;;;2.47;1.30;;;17.50;37.40;;;;;;4999804;28;88522;-70
2022/03/06 06:02:37;;;;;;;1.93;1.43;;;17.50;37.40;;;;;;4999785;28;90622;-69
2022/03/06 06:05:06;;;;;;;1.63;1.27;;;17.60;37.50;;;;;;4999728;28;88948;-69
2022/03/06 06:07:35;;;;;;;1.40;1.30;;;17.50;37.40;;;;;;4999886;28;88428;-69
2022/03/06 06:10:04;;;;;;;1.67;1.30;;;17.50;37.40;;;;;;5000806;28;88372;-69
2022/03/06 06:12:32;;;;;;;5.83;1.93;;;17.50;37.40;;;;;;5000355;28;90129;-69
2022/03/06 06:15:00;;;;;;;1.63;1.20;;;17.50;37.40;;;;;;4999526;28;88915;-69
2022/03/06 06:17:28;;;;;;;3.90;1.23;;;17.50;37.50;;;;;;4999656;28;88442;-68
2022/03/06 06:19:56;;;;;;;1.50;1.40;;;17.50;37.40;;;;;;5000020;28;88521;-68
2022/03/06 06:22:24;;;;;;;2.53;1.30;;;17.50;37.40;;;;;;5000067;28;88460;-68
2022/03/06 06:24:53;;;;;;;2.27;1.67;;;17.50;37.40;;;;;;4999339;28;89215;-69
2022/03/06 06:27:21;;;;;;;2.80;1.73;;;17.50;37.50;;;;;;4999921;28;88401;-69
2022/03/06 06:29:49;;;;;;;1.67;1.40;;;17.50;37.40;;;;;;4999668;28;89290;-69
2022/03/06 06:32:17;;;;;;;1.40;1.30;;;17.50;37.50;;;;;;4999763;28;91075;-69
2022/03/06 06:34:45;;;;;;;2.13;1.60;;;17.50;37.50;;;;;;4999980;28;89594;-69
2022/03/06 06:37:13;;;;;;;1.40;1.30;;;17.50;37.50;;;;;;4999536;28;88363;-69
2022/03/06 06:39:41;;;;;;;1.47;1.30;;;17.40;37.40;;;;;;4999858;28;88613;-69
2022/03/06 06:42:11;;;;;;;1.90;1.40;;;17.40;37.30;;;;;;4999733;28;90087;-69
2022/03/06 06:44:39;;;;;;;2.07;1.37;;;17.40;37.30;;;;;;4999451;28;90091;-69
2022/03/06 06:47:12;;;;;;;3.17;1.40;;;17.40;37.30;;;;;;4979626;28;89911;-69
2022/03/06 06:49:40;;;;;;;1.37;1.27;;;17.40;37.30;;;;;;4979901;28;88497;-69
2022/03/06 06:52:08;;;;;;;0.93;0.93;;;17.40;37.40;;;;;;4993752;28;89597;-69
2022/03/06 06:54:36;;;;;;;1.40;1.17;;;17.40;37.30;;;;;;4999143;28;90041;-69
2022/03/06 06:57:05;;;;;;;0.93;0.87;;;17.40;37.30;;;;;;4998256;28;88472;-68
2022/03/06 06:59:34;;;;;;;2.10;1.40;;;17.40;37.30;;;;;;4999967;28;88486;-69
2022/03/06 07:02:02;;;;;;;1.63;1.40;;;17.40;37.30;;;;;;4999704;28;89469;-69
2022/03/06 07:04:30;;;;;;;2.50;1.33;;;17.50;37.40;;;;;;4999387;28;89445;-69
2022/03/06 07:06:58;;;;;;;1.50;1.40;;;17.50;37.40;;;;;;4998573;28;88788;-69
2022/03/06 07:09:26;;;;;;;1.50;1.20;;;17.50;37.40;;;;;;4998709;28;88953;-68
2022/03/06 07:11:54;;;;;;;1.67;1.33;;;17.50;37.40;;;;;;4998789;28;90710;-69
2022/03/06 07:14:22;;;;;;;2.03;1.20;;;17.50;37.40;;;;;;4998699;28;88761;-69
2022/03/06 07:16:51;;;;;;;2.27;1.57;;;17.50;37.40;;;;;;4999095;28;91419;-69
2022/03/06 07:19:19;;;;;;;1.43;1.17;;;17.50;37.40;;;;;;4998972;28;88521;-69
2022/03/06 07:21:47;;;;;;;1.13;0.90;;;17.50;37.30;;;;;;4998555;28;90116;-68
2022/03/06 07:24:15;;;;;;;2.17;1.57;;;17.50;37.30;;;;;;4998332;28;89222;-69
2022/03/06 07:26:43;;;;;;;1.17;1.07;;;17.50;37.30;;;;;;4998701;28;89333;-68
2022/03/06 07:29:11;;;;;;;2.20;1.33;;;17.50;37.30;;;;;;4999334;28;88152;-68
2022/03/06 07:31:39;;;;;;;1.37;1.27;;;17.50;37.30;;;;;;4999580;28;89382;-69
2022/03/06 07:34:09;;;;;;;1.37;1.27;;;17.50;37.30;;;;;;4998564;28;89054;-69
2022/03/06 07:36:37;;;;;;;1.93;1.20;;;17.50;37.30;;;;;;4997761;28;88943;-68
2022/03/06 07:39:05;;;;;;;1.50;1.40;;;17.50;37.30;;;;;;4998778;28;88470;-69
2022/03/06 07:41:33;;;;;;;1.43;1.00;;;17.50;37.30;;;;;;4998379;28;89537;-69
2022/03/06 07:44:01;;;;;;;1.23;1.13;;;17.50;37.30;;;;;;4999514;28;88924;-69
2022/03/06 07:46:29;;;;;;;1.83;1.40;;;17.50;37.30;;;;;;4998954;28;88415;-68
2022/03/06 07:48:57;;;;;;;1.67;1.50;;;17.50;37.30;;;;;;4998960;28;88378;-69
2022/03/06 07:51:26;;;;;;;1.87;1.30;;;17.50;37.30;;;;;;4998346;28;90749;-69
2022/03/06 07:53:54;;;;;;;1.23;1.13;;;17.50;37.30;;;;;;4998521;28;90131;-68
2022/03/06 07:56:22;;;;;;;1.50;1.40;;;17.40;37.20;;;;;;4998592;28;88442;-69
2022/03/06 07:58:50;;;;;;;1.47;1.33;;;17.40;37.80;;;;;;4997823;28;88257;-68
2022/03/06 08:01:18;;;;;;;1.80;1.00;;;17.50;37.30;;;;;;4997852;28;90660;-68
2022/03/06 08:03:46;;;;;;;1.17;0.97;;;17.50;37.30;;;;;;4997929;28;89922;-69
2022/03/06 08:06:15;;;;;;;2.83;1.30;;;17.50;37.20;;;;;;4997856;28;88604;-68
2022/03/06 08:08:44;;;;;;;2.27;1.63;;;17.40;37.10;;;;;;4998458;28;88498;-68
2022/03/06 08:11:12;;;;;;;2.10;1.27;;;17.40;37.20;;;;;;4998296;28;90704;-69
2022/03/06 08:13:40;;;;;;;2.10;1.20;;;17.30;37.00;;;;;;4999295;28;88653;-69
2022/03/06 08:16:08;;;;;;;1.37;1.20;;;17.40;37.10;;;;;;4998996;28;88292;-68
2022/03/06 08:18:37;;;;;;;1.60;0.97;;;17.40;37.10;;;;;;5000559;28;88469;-68
2022/03/06 08:21:05;;;;;;;1.03;0.93;;;17.40;37.10;;;;;;5002006;28;90693;-69
2022/03/06 08:23:33;;;;;;;1.17;0.93;;;17.40;37.10;;;;;;5001129;28;89089;-69
2022/03/06 08:26:02;;;;;;;1.97;1.50;;;17.40;37.20;;;;;;5001781;28;88552;-68
2022/03/06 08:28:30;;;;;;;1.47;1.33;;;17.40;37.10;;;;;;5002111;28;88327;-69
2022/03/06 08:30:58;;;;;;;2.60;1.30;;;17.40;37.20;;;;;;5001256;28;90677;-68
2022/03/06 08:33:26;;;;;;;2.37;1.17;;;17.40;37.20;;;;;;5000996;28;88997;-70
2022/03/06 08:35:54;;;;;;;2.30;1.40;;;17.40;37.10;;;;;;5001563;28;88826;-69
2022/03/06 08:38:22;;;;;;;1.23;1.03;;;17.40;37.10;;;;;;5001896;28;88478;-69
2022/03/06 08:40:50;;;;;;;1.20;1.10;;;17.40;37.10;;;;;;5001262;28;91064;-69
2022/03/06 08:43:19;;;;;;;1.97;1.07;;;17.40;37.10;;;;;;5003784;28;90387;-68
2022/03/06 08:45:47;;;;;;;1.50;1.40;;;17.40;37.10;;;;;;5000919;28;88422;-70
2022/03/06 08:48:15;;;;;;;1.30;1.20;;;17.40;37.10;;;;;;5001605;28;88604;-69
2022/03/06 08:50:44;;;;;;;1.63;1.20;;;17.40;37.10;;;;;;5001531;28;89309;-70
2022/03/06 08:53:11;;;;;;;1.73;0.93;;;17.40;37.10;;;;;;5001172;28;90139;-69
2022/03/06 08:55:39;;;;;;;1.30;1.20;;;17.40;37.10;;;;;;5000190;28;88977;-68
2022/03/06 08:58:07;;;;;;;1.07;0.97;;;17.40;37.10;;;;;;5000498;28;88776;-69
2022/03/06 09:00:37;;;;;;;1.03;1.00;;;17.40;37.10;;;;;;5000666;28;89573;-69
2022/03/06 09:03:05;;;;;;;1.63;1.10;;;17.40;37.10;;;;;;5001116;28;89953;-69
2022/03/06 09:05:38;;;;;;;0.97;0.80;;;17.40;37.10;;;;;;5000641;28;88246;-69
2022/03/06 09:08:06;;;;;;;1.83;0.80;;;17.40;37.10;;;;;;5000775;28;88512;-69
2022/03/06 09:10:34;;;;;;;2.17;1.20;;;17.50;37.10;;;;;;5001658;28;89299;-69
2022/03/06 09:13:02;;;;;;;1.87;1.23;;;17.50;37.10;;;;;;5000615;28;90011;-70
2022/03/06 09:15:30;;;;;;;1.47;0.83;;;17.50;37.10;;;;;;5000582;28;89842;-68
2022/03/06 09:17:59;;;;;;;1.10;1.00;;;17.40;37.00;;;;;;5001022;28;88503;-69
2022/03/06 09:20:27;;;;;;;1.83;1.30;;;17.40;37.00;;;;;;5000989;28;89351;-68
2022/03/06 09:22:55;;;;;;;0.97;0.93;;;17.40;37.00;;;;;;5000802;28;89655;-69
2022/03/06 09:25:24;;;;;;;2.03;0.80;;;17.40;37.00;;;;;;5000720;28;88902;-68
2022/03/06 09:27:52;;;;;;;1.77;1.10;;;17.40;37.60;;;;;;5000928;28;88419;-69
2022/03/06 09:30:20;;;;;;;1.33;0.87;;;17.40;37.00;;;;;;5000637;28;89366;-70
2022/03/06 09:32:48;;;;;;;1.10;1.00;;;17.40;37.60;;;;;;4999543;28;88886;-69
2022/03/06 09:35:17;;;;;;;1.00;0.90;;;17.40;37.00;;;;;;5000008;28;88392;-69
2022/03/06 09:37:45;;;;;;;1.07;1.07;;;17.40;37.00;;;;;;5000177;28;88665;-69
2022/03/06 09:40:13;;;;;;;1.87;1.27;;;17.50;37.10;;;;;;4999707;28;89604;-69
2022/03/06 09:42:41;;;;;;;1.10;1.00;;;17.50;37.10;;;;;;5000059;28;90101;-69
2022/03/06 09:45:11;;;;;;;1.43;1.00;;;17.40;37.60;;;;;;5000363;28;91769;-69
2022/03/06 09:47:39;;;;;;;0.67;0.67;;;17.50;37.00;;;;;;4999620;28;88526;-69
2022/03/06 09:50:08;;;;;;;1.10;0.87;;;17.40;37.00;;;;;;4998967;28;88505;-69
2022/03/06 09:52:38;;;;;;;1.27;1.17;;;17.40;37.00;;;;;;5000077;28;90034;-69
2022/03/06 09:55:07;;;;;;;2.40;0.80;;;17.40;37.00;;;;;;4999910;28;88929;-69
2022/03/06 09:57:35;;;;;;;1.57;1.00;;;17.50;37.10;;;;;;5000204;28;88446;-69
2022/03/06 10:00:05;;;;;;;1.47;0.90;;;17.40;37.00;;;;;;5000130;28;90659;-69
2022/03/06 10:02:33;;;;;;;1.87;0.90;;;17.40;37.00;;;;;;4999249;28;88176;-70
2022/03/06 10:05:01;;;;;;;0.90;0.90;;;17.40;37.00;;;;;;4998681;28;89800;-69
2022/03/06 10:07:29;;;;;;;1.37;0.87;;;17.50;37.00;;;;;;4999882;28;88668;-69
2022/03/06 10:10:00;;;;;;;0.60;0.60;;;17.40;37.00;;;;;;4999836;28;90750;-69
2022/03/06 10:12:30;;;;;;;0.97;0.90;;;17.40;37.00;;;;;;4999992;28;88405;-69
2022/03/06 10:14:59;;;;;;;1.40;0.70;;;17.40;37.00;;;;;;4999693;28;88342;-70
2022/03/06 10:17:28;;;;;;;0.67;0.50;;;17.50;37.00;;;;;;5000216;28;88453;-70
2022/03/06 10:19:58;;;;;;;1.53;0.50;;;17.50;37.00;;;;;;5000459;28;90063;-69
2022/03/06 10:22:27;;;;;;;1.07;0.70;;;17.50;37.00;;;;;;4999061;28;88628;-69
2022/03/06 10:24:56;;;;;;;2.23;1.60;;;17.50;37.00;;;;;;5000423;28;88558;-70
2022/03/06 10:27:46;;;;;;;1.10;0.73;;;17.50;37.00;;;;;;4999991;28;88272;-70
2022/03/06 10:30:25;;;;;;;2.27;1.10;;;17.40;37.00;;;;;;4999853;28;90822;-70
2022/03/06 10:32:53;;;;;;;1.17;0.77;;;17.50;37.70;;;;;;4999205;28;89510;-70
2022/03/06 10:35:26;;;;;;;1.23;1.13;;;17.50;37.00;;;;;;4998678;28;88370;-70
2022/03/06 10:37:54;;;;;;;2.60;0.90;;;17.60;37.10;;;;;;4998312;28;88600;-70
2022/03/06 10:40:32;;;;;;;3.20;1.10;;;17.50;37.00;;;;;;4998390;28;90754;-70
2022/03/06 10:43:02;;;;;;;2.33;0.90;;;17.50;37.10;;;;;;4999615;28;89607;-71
2022/03/06 10:45:30;;;;;;;1.03;0.90;;;17.50;37.10;;;;;;5000033;28;88353;-72
2022/03/06 10:47:58;;;;;;;1.17;1.07;;;17.50;37.10;;;;;;4999780;28;88635;-70
2022/03/06 10:50:26;;;;;;;1.10;1.00;;;17.50;37.30;;;;;;5001399;28;93070;-70
2022/03/06 10:52:58;;;;;;;2.97;1.00;;;17.60;37.40;;;;;;5001938;28;89121;-70
2022/03/06 10:55:33;;;;;;;1.77;0.90;;;17.60;37.50;;;;;;4999148;28;89763;-67
2022/03/06 10:58:03;;;;;;;1.60;0.73;;;17.60;37.60;;;;;;5000612;28;88421;-67
2022/03/06 11:00:32;;;;;;;1.77;0.90;;;17.60;37.60;;;;;;4997975;28;89448;-67
2022/03/06 11:03:01;;;;;;;2.17;1.00;;;17.60;37.80;;;;;;4998247;28;89748;-67
2022/03/06 11:05:30;;;;;;;0.80;0.80;;;17.70;37.90;;;;;;4998093;28;88846;-67
2022/03/06 11:07:58;;;;;;;1.00;0.90;;;17.70;37.90;;;;;;4999531;28;88469;-67
2022/03/06 11:10:26;;;;;;;9.93;1.10;;;17.70;37.90;;;;;;4998757;28;90710;-67
2022/03/06 11:12:54;;;;;;;1.63;0.80;;;17.70;37.90;;;;;;4998170;28;89388;-67
2022/03/06 11:15:23;;;;;;;0.77;0.73;;;17.70;37.90;;;;;;4999162;28;88471;-67
2022/03/06 11:17:51;;;;;;;1.57;1.00;;;17.70;37.90;;;;;;4998574;28;88471;-67
2022/03/06 11:20:20;;;;;;;2.13;0.97;;;17.70;37.90;;;;;;4998569;28;90742;-67
2022/03/06 11:22:50;;;;;;;4.23;0.73;;;17.70;37.80;;;;;;4998398;28;88956;-67
2022/03/06 11:25:22;;;;;;;0.80;0.80;;;17.70;37.90;;;;;;4997821;28;88301;-67
2022/03/06 11:28:00;;;;;;;1.00;0.90;;;17.70;37.80;;;;;;4998488;28;89910;-67
2022/03/06 11:30:29;;;;;;;1.00;0.80;;;17.70;37.80;;;;;;4998610;28;89857;-67
2022/03/06 11:33:02;;;;;;;1.00;0.90;;;17.70;37.70;;;;;;4998898;28;89755;-67
2022/03/06 11:35:31;;;;;;;0.60;0.60;;;17.70;37.70;;;;;;4998455;28;88491;-67
2022/03/06 11:38:00;;;;;;;2.67;0.77;;;17.70;37.70;;;;;;4998881;28;88447;-67
2022/03/06 11:40:49;;;;;;;1.60;0.70;;;17.70;37.70;;;;;;4998170;28;90663;-67
2022/03/06 11:43:33;;;;;;;1.23;0.80;;;17.70;37.70;;;;;;4997518;28;88390;-67
2022/03/06 11:46:07;;;;;;;2.57;1.10;;;17.70;37.70;;;;;;4998426;28;89042;-67
2022/03/06 11:49:00;;;;;;;0.80;0.80;;;17.70;37.70;;;;;;4998675;28;88433;-67
2022/03/06 11:51:29;;;;;;;1.17;0.80;;;17.70;37.70;;;;;;4999096;28;90647;-67
2022/03/06 11:53:58;;;;;;;0.97;0.80;;;17.70;37.60;;;;;;5001673;28;89875;-67
2022/03/06 11:56:50;;;;;;;0.77;0.77;;;17.70;37.70;;;;;;5001847;28;89006;-67
2022/03/06 11:59:35;;;;;;;1.33;1.23;;;17.70;37.70;;;;;;5002236;28;88437;-67
2022/03/06 12:02:13;;;;;;;1.60;0.60;;;17.70;37.70;;;;;;5001943;28;90559;-67
2022/03/06 12:04:45;;;;;;;2.20;0.83;;;17.70;37.70;;;;;;5001811;28;89807;-67
2022/03/06 12:07:14;;;;;;;0.70;0.70;;;17.70;37.70;;;;;;5001589;28;89077;-67
2022/03/06 12:09:43;;;;;;;1.57;0.87;;;17.70;37.70;;;;;;5001881;28;88632;-67
2022/03/06 12:12:11;;;;;;;0.77;0.53;;;17.70;37.70;;;;;;5002154;28;90631;-67
2022/03/06 12:14:40;;;;;;;1.30;0.73;;;17.70;37.70;;;;;;5001499;28;89604;-67
2022/03/06 12:17:30;;;;;;;0.97;0.87;;;17.70;37.70;;;;;;5002101;28;89947;-67
2022/03/06 12:20:23;;;;;;;0.63;0.53;;;17.70;37.70;;;;;;5001561;28;88535;-67
2022/03/06 12:22:52;;;;;;;0.87;0.77;;;17.70;37.70;;;;;;5001242;28;90881;-67
2022/03/06 12:25:31;;;;;;;0.80;0.80;;;17.70;38.30;;;;;;5001507;28;90680;-67
2022/03/06 12:28:39;;;;;;;2.27;0.80;;;17.70;37.70;;;;;;5001983;28;91037;-67
2022/03/06 12:31:30;;;;;;;1.23;0.50;;;17.80;37.80;;;;;;4981516;28;88484;-67
2022/03/06 12:34:00;;;;;;;1.20;0.83;;;17.80;38.40;;;;;;4980659;28;89637;-67
2022/03/06 12:36:28;;;;;;;1.00;0.97;;;17.80;37.80;;;;;;4980657;28;90119;-67
2022/03/06 12:38:58;;;;;;;4.37;0.97;;;17.80;37.80;;;;;;4981572;28;91767;-67
2022/03/06 12:41:26;;;;;;;0.87;0.80;;;17.90;37.80;;;;;;5000503;28;89741;-67
2022/03/06 12:44:02;;;;;;;2.20;0.87;;;17.90;37.80;;;;;;5000623;28;91198;-67
2022/03/06 12:46:30;;;;;;;1.83;0.90;;;17.90;37.80;;;;;;5001405;28;91952;-67
2022/03/06 12:49:00;;;;;;;0.93;0.73;;;17.90;37.80;;;;;;5001062;28;88628;-67
2022/03/06 12:51:37;;;;;;;1.30;0.90;;;17.90;37.80;;;;;;5001339;28;88509;-67
2022/03/06 12:54:08;;;;;;;1.67;0.80;;;17.90;37.80;;;;;;5000927;28;89246;-67
2022/03/06 12:56:38;;;;;;;1.33;0.77;;;17.90;37.70;;;;;;5000430;28;88953;-67
2022/03/06 12:59:15;;;;;;;1.17;0.87;;;18.00;37.80;;;;;;5001556;28;90375;-67